Time;durP1;ratioP1;P1;durP2;ratioP2;P2;SDS_P1;SDS_P2;PMS_P1;PMS_P2;Temp;Humidity;BMP_temperature;BMP_pressure;BME280_temperature;BME280_humidity;BME280_pressure;Samples;Min_cycle;Max_cycle;Signal;HPM_P1;HPM_P2
2023/08/20 00:00:07;;;;;;;12.15;10.88;;;21.20;97.70;;;;;;6124285;23;20102;-81
2023/08/20 00:02:36;;;;;;;11.85;10.65;;;21.10;97.60;;;;;;6124348;23;20045;-82
2023/08/20 00:05:03;;;;;;;11.43;10.23;;;21.20;97.50;;;;;;6125710;23;20046;-81
2023/08/20 00:07:30;;;;;;;11.77;10.57;;;21.20;97.50;;;;;;6124480;23;20002;-81
2023/08/20 00:09:56;;;;;;;11.38;9.95;;;21.20;97.40;;;;;;6124107;23;20005;-82
2023/08/20 00:12:22;;;;;;;11.63;10.30;;;21.20;97.40;;;;;;6099819;23;20002;-81
2023/08/20 00:15:04;;;;;;;11.52;10.32;;;21.20;97.30;;;;;;6124118;23;20089;-81
2023/08/20 00:17:34;;;;;;;11.82;10.55;;;21.30;97.30;;;;;;6125894;23;20018;-81
2023/08/20 00:20:01;;;;;;;11.40;10.20;;;21.30;97.30;;;;;;6099675;23;20006;-81
2023/08/20 00:22:27;;;;;;;11.55;10.27;;;21.30;97.30;;;;;;6124240;23;20084;-81
2023/08/20 00:24:54;;;;;;;11.57;10.38;;;21.20;97.30;;;;;;6123807;23;20057;-81
2023/08/20 00:27:20;;;;;;;12.10;10.85;;;21.20;97.30;;;;;;6099672;23;20006;-82
2023/08/20 00:29:45;;;;;;;11.48;10.38;;;21.20;97.30;;;;;;6125535;23;20005;-81
2023/08/20 00:32:11;;;;;;;11.15;9.90;;;21.20;97.40;;;;;;6124159;23;19998;-81
2023/08/20 00:34:36;;;;;;;10.98;9.65;;;21.20;97.40;;;;;;6099506;23;20010;-81
2023/08/20 00:37:03;;;;;;;11.38;10.15;;;21.20;97.40;;;;;;6099757;23;20344;-80
2023/08/20 00:39:29;;;;;;;11.30;10.10;;;21.20;97.50;;;;;;6124250;23;20330;-81
2023/08/20 00:41:55;;;;;;;10.48;9.38;;;21.10;97.40;;;;;;6099652;23;20005;-81
2023/08/20 00:44:21;;;;;;;10.77;9.68;;;21.20;97.50;;;;;;6098964;23;20021;-81
2023/08/20 00:46:47;;;;;;;11.23;10.02;;;21.10;97.50;;;;;;6099723;23;20002;-81
2023/08/20 00:49:12;;;;;;;10.93;9.70;;;21.10;97.50;;;;;;6099486;23;20002;-81
2023/08/20 00:51:38;;;;;;;10.75;9.63;;;21.10;97.50;;;;;;6099575;23;20006;-81
2023/08/20 00:54:04;;;;;;;10.38;9.32;;;21.10;97.50;;;;;;6099179;23;20006;-81
2023/08/20 00:56:30;;;;;;;10.73;9.63;;;21.10;97.50;;;;;;6100043;23;20013;-81
2023/08/20 00:58:56;;;;;;;10.52;9.43;;;21.10;97.50;;;;;;6099479;23;20014;-81
2023/08/20 01:01:22;;;;;;;10.23;9.18;;;21.10;97.40;;;;;;6099893;23;20061;-81
2023/08/20 01:03:48;;;;;;;10.57;9.48;;;21.10;97.50;;;;;;6124923;23;20076;-80
2023/08/20 01:06:26;;;;;;;10.55;9.35;;;21.10;97.40;;;;;;6099391;23;20433;-81
2023/08/20 01:09:03;;;;;;;9.80;8.80;;;21.10;97.40;;;;;;6125264;23;20070;-83
2023/08/20 01:11:33;;;;;;;10.48;9.38;;;21.10;97.40;;;;;;6100829;23;20064;-80
2023/08/20 01:14:01;;;;;;;9.70;8.70;;;21.10;97.40;;;;;;6124884;23;20002;-80
2023/08/20 01:16:26;;;;;;;10.02;8.75;;;21.10;97.40;;;;;;6099240;23;20456;-81
2023/08/20 01:18:53;;;;;;;10.30;9.25;;;21.10;97.40;;;;;;6099339;23;20005;-80
2023/08/20 01:21:39;;;;;;;9.73;8.63;;;21.10;97.40;;;;;;6099189;23;20013;-80
2023/08/20 01:24:28;;;;;;;10.27;8.95;;;21.10;97.40;;;;;;6098799;23;20010;-80
2023/08/20 01:27:10;;;;;;;10.77;9.65;;;21.10;97.30;;;;;;6099014;23;20014;-80
2023/08/20 01:29:36;;;;;;;9.88;8.70;;;21.10;97.30;;;;;;6099116;23;20064;-80
2023/08/20 01:32:04;;;;;;;9.70;8.63;;;21.10;97.30;;;;;;6099086;23;20002;-80
2023/08/20 01:34:30;;;;;;;9.50;8.50;;;21.20;97.20;;;;;;6098824;23;20433;-80
2023/08/20 01:36:55;;;;;;;10.07;8.93;;;21.10;97.20;;;;;;6099143;23;20010;-80
2023/08/20 01:39:21;;;;;;;9.95;8.65;;;21.20;97.10;;;;;;6125007;23;20009;-80
2023/08/20 01:41:46;;;;;;;9.70;8.70;;;21.20;97.10;;;;;;6125365;23;20361;-81
2023/08/20 01:44:12;;;;;;;9.90;8.85;;;21.20;97.00;;;;;;6098561;23;20018;-80
2023/08/20 01:46:37;;;;;;;9.73;8.68;;;21.20;97.00;;;;;;6099007;23;20029;-80
2023/08/20 01:49:03;;;;;;;9.93;8.65;;;21.20;97.00;;;;;;6099167;23;20060;-81
2023/08/20 01:51:29;;;;;;;9.95;8.75;;;21.20;97.00;;;;;;6124951;23;19998;-80
2023/08/20 01:53:54;;;;;;;9.43;8.40;;;21.20;96.90;;;;;;6124458;23;20006;-81
2023/08/20 01:56:20;;;;;;;9.57;7.85;;;21.20;97.00;;;;;;6099167;23;20165;-80
2023/08/20 01:58:45;;;;;;;9.60;8.10;;;21.20;97.00;;;;;;6125046;23;20013;-81
2023/08/20 02:01:11;;;;;;;9.73;8.25;;;21.20;97.10;;;;;;6098959;23;20006;-80
2023/08/20 02:03:40;;;;;;;9.85;8.43;;;21.20;97.10;;;;;;6098512;23;20002;-80
2023/08/20 02:06:05;;;;;;;9.35;8.35;;;21.10;97.10;;;;;;6098854;23;20437;-81
2023/08/20 02:08:31;;;;;;;8.85;7.85;;;21.10;97.10;;;;;;6099006;23;20113;-80
2023/08/20 02:11:02;;;;;;;8.70;7.78;;;21.10;97.20;;;;;;6096945;23;20006;-80
2023/08/20 02:13:27;;;;;;;8.70;7.80;;;21.10;97.20;;;;;;6124365;23;19998;-79
2023/08/20 02:16:03;;;;;;;9.02;8.02;;;21.10;97.20;;;;;;6124571;23;20014;-80
2023/08/20 02:18:29;;;;;;;9.40;8.10;;;21.10;97.20;;;;;;6124851;23;20013;-81
2023/08/20 02:20:55;;;;;;;9.23;8.23;;;21.10;97.20;;;;;;6098781;23;20093;-80
2023/08/20 02:23:21;;;;;;;8.52;7.40;;;21.10;97.20;;;;;;6124881;23;20034;-80
2023/08/20 02:25:47;;;;;;;8.70;7.80;;;21.10;97.20;;;;;;6098579;23;20013;-80
2023/08/20 02:28:12;;;;;;;9.10;8.07;;;21.10;97.20;;;;;;6098789;23;20009;-80
2023/08/20 02:30:41;;;;;;;9.27;8.25;;;21.10;97.20;;;;;;6099097;23;20341;-81
2023/08/20 02:33:06;;;;;;;8.88;7.63;;;21.10;97.20;;;;;;6098873;23;20012;-81
2023/08/20 02:35:32;;;;;;;9.10;7.72;;;21.10;97.20;;;;;;6098751;23;20092;-80
2023/08/20 02:37:57;;;;;;;10.07;7.90;;;21.10;97.20;;;;;;6098970;23;20013;-81
2023/08/20 02:40:23;;;;;;;8.55;7.47;;;21.10;97.20;;;;;;6098886;23;20017;-81
2023/08/20 02:42:48;;;;;;;9.13;7.75;;;21.10;97.10;;;;;;6099024;23;20341;-80
2023/08/20 02:45:14;;;;;;;9.38;7.60;;;21.00;97.10;;;;;;6100370;23;20010;-80
2023/08/20 02:47:39;;;;;;;8.27;7.13;;;21.10;97.10;;;;;;6126702;23;20314;-80
2023/08/20 02:50:05;;;;;;;8.70;7.07;;;21.10;97.10;;;;;;6100547;23;20493;-80
2023/08/20 02:52:31;;;;;;;8.55;7.32;;;21.00;97.10;;;;;;6100643;23;20022;-80
2023/08/20 02:54:56;;;;;;;8.10;7.10;;;21.10;97.10;;;;;;6126174;23;20009;-80
2023/08/20 02:57:22;;;;;;;8.48;7.30;;;21.10;97.00;;;;;;6126638;23;20393;-81
2023/08/20 02:59:47;;;;;;;8.68;7.45;;;21.10;97.00;;;;;;6100751;23;20046;-80
2023/08/20 03:02:13;;;;;;;8.23;6.82;;;21.10;97.00;;;;;;6100505;23;20045;-80
2023/08/20 03:04:38;;;;;;;8.38;7.18;;;21.10;97.00;;;;;;6100103;23;20089;-81
2023/08/20 03:07:04;;;;;;;9.52;7.32;;;21.20;96.90;;;;;;6100642;23;20310;-81
2023/08/20 03:09:30;;;;;;;7.95;7.15;;;21.20;96.90;;;;;;6100389;23;20002;-81
2023/08/20 03:11:55;;;;;;;9.07;7.15;;;21.20;96.80;;;;;;6100525;23;20006;-80
2023/08/20 03:14:21;;;;;;;8.52;6.82;;;21.20;96.80;;;;;;6100210;23;20006;-80
2023/08/20 03:16:46;;;;;;;8.63;7.35;;;21.20;96.70;;;;;;6126262;23;20003;-80
2023/08/20 03:19:15;;;;;;;8.40;6.85;;;21.20;96.70;;;;;;6126521;23;20010;-81
2023/08/20 03:21:40;;;;;;;8.63;6.90;;;21.20;96.70;;;;;;6100356;23;20005;-81
2023/08/20 03:24:07;;;;;;;9.00;7.07;;;21.20;96.70;;;;;;6100023;23;20009;-80
2023/08/20 03:26:32;;;;;;;8.45;6.65;;;21.20;96.70;;;;;;6100365;23;20345;-81
2023/08/20 03:28:58;;;;;;;8.02;6.57;;;21.20;96.70;;;;;;6100123;23;20085;-80
2023/08/20 03:31:24;;;;;;;8.55;6.72;;;21.20;96.80;;;;;;6100257;23;20085;-81
2023/08/20 03:33:50;;;;;;;8.25;6.70;;;21.10;96.80;;;;;;6100112;23;20040;-80
2023/08/20 03:36:15;;;;;;;7.85;6.40;;;21.10;96.80;;;;;;6100423;23;20398;-81
2023/08/20 03:38:41;;;;;;;8.02;6.80;;;21.10;96.90;;;;;;6100205;23;20006;-81
2023/08/20 03:41:06;;;;;;;9.07;6.85;;;21.10;96.90;;;;;;6100269;23;20094;-80
2023/08/20 03:43:32;;;;;;;8.13;6.85;;;21.10;96.90;;;;;;6100030;23;20052;-80
2023/08/20 03:45:57;;;;;;;8.18;6.85;;;21.10;96.90;;;;;;6099833;23;20009;-80
2023/08/20 03:48:23;;;;;;;8.50;6.80;;;21.10;96.90;;;;;;6126010;23;20030;-80
2023/08/20 03:50:48;;;;;;;7.63;6.30;;;21.10;96.90;;;;;;6099945;23;20005;-80
2023/08/20 03:53:14;;;;;;;8.30;6.50;;;21.10;96.90;;;;;;6125980;23;20049;-80
2023/08/20 03:55:39;;;;;;;8.13;6.63;;;21.10;96.90;;;;;;6099346;23;20013;-80
2023/08/20 03:58:05;;;;;;;8.20;6.43;;;21.10;96.90;;;;;;6125877;23;20341;-81
2023/08/20 04:00:30;;;;;;;7.78;6.22;;;21.10;96.90;;;;;;6100091;23;20457;-80
2023/08/20 04:02:56;;;;;;;8.27;6.28;;;21.00;96.90;;;;;;6099813;23;20006;-80
2023/08/20 04:05:21;;;;;;;7.63;6.30;;;21.10;96.90;;;;;;6099889;23;20002;-80
2023/08/20 04:07:47;;;;;;;8.43;6.63;;;21.00;96.90;;;;;;6125958;23;20073;-80
2023/08/20 04:10:12;;;;;;;7.68;5.95;;;21.10;96.90;;;;;;6100001;23;20041;-80
2023/08/20 04:12:38;;;;;;;8.50;6.60;;;21.10;96.90;;;;;;6098799;23;20002;-80
2023/08/20 04:15:04;;;;;;;8.40;6.07;;;21.10;96.90;;;;;;6099391;23;20060;-80
2023/08/20 04:17:29;;;;;;;7.97;6.30;;;21.00;96.80;;;;;;6100273;23;20048;-81
2023/08/20 04:19:55;;;;;;;7.90;6.40;;;21.00;96.80;;;;;;6099659;23;20013;-81
2023/08/20 04:22:20;;;;;;;7.93;6.35;;;21.00;96.80;;;;;;6099748;23;20002;-80
2023/08/20 04:24:46;;;;;;;7.50;5.78;;;21.00;96.80;;;;;;6099414;23;20392;-81
2023/08/20 04:27:11;;;;;;;8.00;6.43;;;21.00;96.80;;;;;;6124406;23;20009;-80
2023/08/20 04:29:37;;;;;;;8.30;6.13;;;21.10;96.80;;;;;;6099994;23;20302;-81
2023/08/20 04:32:02;;;;;;;7.15;5.93;;;21.10;96.70;;;;;;6099693;23;20060;-80
2023/08/20 04:34:28;;;;;;;8.00;5.90;;;21.10;96.70;;;;;;6125068;23;20010;-80
2023/08/20 04:36:53;;;;;;;8.55;6.13;;;21.10;96.70;;;;;;6099582;23;20014;-80
2023/08/20 04:39:19;;;;;;;7.80;5.97;;;21.20;96.60;;;;;;6099771;23;20081;-81
2023/08/20 04:41:44;;;;;;;7.88;5.90;;;21.20;96.60;;;;;;6099459;23;20017;-81
2023/08/20 04:44:10;;;;;;;7.38;5.80;;;21.10;96.50;;;;;;6099161;23;20088;-80
2023/08/20 04:46:35;;;;;;;8.05;6.13;;;21.20;96.70;;;;;;6099551;23;20034;-81
2023/08/20 04:49:01;;;;;;;7.63;5.78;;;21.20;96.50;;;;;;6099571;23;20033;-80
2023/08/20 04:51:26;;;;;;;7.38;5.90;;;21.20;96.40;;;;;;6099715;23;20006;-80
2023/08/20 04:53:52;;;;;;;7.35;6.03;;;21.20;96.40;;;;;;6099217;23;19998;-80
2023/08/20 04:56:18;;;;;;;8.02;5.90;;;21.10;96.40;;;;;;6099434;23;19998;-80
2023/08/20 04:58:44;;;;;;;7.63;5.50;;;21.10;96.40;;;;;;6099421;23;20463;-80
2023/08/20 05:01:09;;;;;;;7.10;5.47;;;21.10;96.50;;;;;;6099636;23;20025;-81
2023/08/20 05:03:35;;;;;;;6.68;5.30;;;21.10;96.50;;;;;;6098953;23;20038;-80
2023/08/20 05:06:01;;;;;;;7.10;5.30;;;21.10;96.60;;;;;;6099208;23;20002;-81
2023/08/20 05:08:27;;;;;;;7.63;5.57;;;21.10;96.60;;;;;;6099362;23;20006;-80
2023/08/20 05:10:52;;;;;;;8.25;6.10;;;21.10;96.60;;;;;;6099330;23;20360;-80
2023/08/20 05:13:20;;;;;;;7.88;5.63;;;21.10;96.60;;;;;;6125440;23;20002;-80
2023/08/20 05:15:46;;;;;;;7.75;5.72;;;21.10;96.60;;;;;;6099187;23;20010;-80
2023/08/20 05:18:12;;;;;;;7.88;5.88;;;21.10;96.60;;;;;;6099333;23;20057;-81
2023/08/20 05:20:39;;;;;;;6.88;5.35;;;21.10;96.60;;;;;;6099630;23;20006;-80
2023/08/20 05:23:05;;;;;;;8.00;5.70;;;21.10;96.50;;;;;;6099213;23;20009;-80
2023/08/20 05:25:31;;;;;;;7.00;5.50;;;21.10;96.50;;;;;;6098836;23;20041;-80
2023/08/20 05:27:56;;;;;;;7.47;5.95;;;21.10;96.50;;;;;;6124539;23;20072;-80
2023/08/20 05:30:22;;;;;;;7.18;5.20;;;21.00;96.50;;;;;;6099188;23;20345;-80
2023/08/20 05:32:47;;;;;;;6.72;5.25;;;21.10;96.50;;;;;;6124929;23;20049;-80
2023/08/20 05:35:13;;;;;;;7.20;5.38;;;21.10;96.40;;;;;;6124733;23;20496;-80
2023/08/20 05:37:38;;;;;;;7.00;5.35;;;21.10;96.30;;;;;;6125262;23;20006;-80
2023/08/20 05:40:04;;;;;;;6.82;5.22;;;21.10;96.30;;;;;;6099128;23;20033;-81
2023/08/20 05:42:30;;;;;;;6.93;5.20;;;21.10;96.30;;;;;;6098930;23;20013;-80
2023/08/20 05:44:55;;;;;;;6.97;5.28;;;21.10;96.30;;;;;;6098529;23;20013;-80
2023/08/20 05:47:21;;;;;;;10.43;5.57;;;21.10;96.30;;;;;;6098980;23;20442;-80
2023/08/20 05:49:46;;;;;;;7.22;5.55;;;21.10;96.20;;;;;;6099021;23;20075;-80
2023/08/20 05:52:12;;;;;;;7.22;5.15;;;21.20;96.20;;;;;;6125311;23;20002;-80
2023/08/20 05:54:38;;;;;;;7.10;4.85;;;21.20;96.10;;;;;;6098801;23;20381;-81
2023/08/20 05:57:03;;;;;;;6.68;4.95;;;21.20;96.20;;;;;;6099178;23;20010;-80
2023/08/20 05:59:29;;;;;;;6.93;5.13;;;21.20;96.10;;;;;;6099015;23;20401;-81
2023/08/20 06:01:54;;;;;;;6.45;4.90;;;21.20;96.00;;;;;;6124859;23;20055;-80
2023/08/20 06:04:20;;;;;;;6.53;4.82;;;21.20;95.90;;;;;;6124453;23;20341;-80
2023/08/20 06:06:46;;;;;;;7.00;4.90;;;21.30;95.80;;;;;;6124794;23;20332;-80
2023/08/20 06:09:11;;;;;;;6.25;4.93;;;21.30;95.70;;;;;;6124926;23;19999;-80
2023/08/20 06:11:37;;;;;;;7.60;5.13;;;21.30;95.60;;;;;;6098863;23;20009;-80
2023/08/20 06:14:03;;;;;;;7.47;4.97;;;21.40;95.50;;;;;;6098599;23;20440;-81
2023/08/20 06:16:28;;;;;;;7.00;4.68;;;21.40;95.50;;;;;;6099031;23;20005;-81
2023/08/20 06:18:54;;;;;;;6.90;4.90;;;21.40;95.40;;;;;;6100091;23;20006;-80
2023/08/20 06:21:19;;;;;;;7.07;4.60;;;21.40;95.40;;;;;;6126967;23;20028;-80
2023/08/20 06:23:45;;;;;;;6.37;4.60;;;21.50;95.40;;;;;;6126346;23;20004;-80
2023/08/20 06:26:11;;;;;;;6.68;5.10;;;21.50;95.40;;;;;;6126852;23;20057;-80
2023/08/20 06:28:37;;;;;;;6.72;4.70;;;21.40;95.60;;;;;;6101074;23;20085;-80
2023/08/20 06:31:02;;;;;;;6.15;4.57;;;21.40;95.40;;;;;;6101028;23;20033;-80
2023/08/20 06:33:28;;;;;;;6.60;4.75;;;21.40;95.40;;;;;;6126416;23;20310;-78
2023/08/20 06:35:53;;;;;;;7.07;4.70;;;21.40;95.40;;;;;;6100666;23;20014;-81
2023/08/20 06:38:19;;;;;;;6.82;4.50;;;21.40;95.40;;;;;;6101200;23;20064;-80
2023/08/20 06:40:44;;;;;;;6.47;4.53;;;21.50;95.40;;;;;;6100938;23;20026;-80
2023/08/20 06:43:10;;;;;;;6.55;4.68;;;21.40;95.30;;;;;;6100796;23;20033;-80
2023/08/20 06:45:35;;;;;;;6.80;4.57;;;21.50;95.30;;;;;;6100167;23;20497;-80
2023/08/20 06:48:01;;;;;;;6.20;4.13;;;21.50;95.30;;;;;;6100836;23;20048;-80
2023/08/20 06:50:26;;;;;;;6.25;4.47;;;21.50;95.20;;;;;;6100609;23;20086;-80
2023/08/20 06:52:52;;;;;;;7.00;4.57;;;21.50;95.20;;;;;;6100726;23;20073;-80
2023/08/20 06:55:17;;;;;;;6.45;4.53;;;21.60;95.20;;;;;;6126226;23;20073;-80
2023/08/20 06:57:43;;;;;;;5.57;4.28;;;21.50;95.10;;;;;;6100645;23;20014;-81
2023/08/20 07:00:08;;;;;;;6.75;4.60;;;21.50;95.10;;;;;;6100642;23;20013;-80
2023/08/20 07:02:34;;;;;;;6.55;4.40;;;21.50;95.10;;;;;;6100627;23;20010;-80
2023/08/20 07:04:59;;;;;;;5.80;4.22;;;21.60;95.00;;;;;;6100386;23;20024;-81
2023/08/20 07:07:25;;;;;;;6.03;4.60;;;21.60;95.00;;;;;;6126433;23;19997;-80
2023/08/20 07:09:50;;;;;;;5.80;4.07;;;21.60;94.90;;;;;;6102139;23;19998;-80
2023/08/20 07:12:16;;;;;;;6.63;4.28;;;21.60;94.90;;;;;;6126363;23;19998;-79
2023/08/20 07:14:42;;;;;;;6.30;4.30;;;21.60;94.80;;;;;;6125938;23;19998;-80
2023/08/20 07:17:07;;;;;;;6.10;4.05;;;21.60;94.80;;;;;;6126431;23;20030;-80
2023/08/20 07:19:33;;;;;;;5.78;4.18;;;21.70;94.80;;;;;;6100376;23;20445;-80
2023/08/20 07:21:58;;;;;;;5.60;4.10;;;21.70;94.70;;;;;;6100355;23;20041;-81
2023/08/20 07:24:25;;;;;;;5.93;3.97;;;21.70;94.70;;;;;;6100000;23;20037;-80
2023/08/20 07:26:51;;;;;;;5.90;3.90;;;21.80;94.70;;;;;;6099791;23;20045;-80
2023/08/20 07:29:17;;;;;;;6.38;4.15;;;21.80;94.60;;;;;;6100316;23;20441;-81
2023/08/20 07:31:43;;;;;;;6.18;3.88;;;21.80;94.50;;;;;;6100143;23;20013;-80
2023/08/20 07:34:08;;;;;;;5.65;3.88;;;21.90;94.40;;;;;;6099962;23;20066;-80
2023/08/20 07:36:34;;;;;;;6.97;4.00;;;21.90;94.30;;;;;;6100245;23;20323;-81
2023/08/20 07:39:00;;;;;;;6.05;4.10;;;21.90;94.20;;;;;;6100274;23;20006;-81
2023/08/20 07:41:25;;;;;;;6.63;4.20;;;21.90;94.10;;;;;;6100213;23;20318;-80
2023/08/20 07:43:51;;;;;;;5.68;3.72;;;22.00;94.10;;;;;;6099700;23;20010;-81
2023/08/20 07:46:16;;;;;;;5.47;4.03;;;22.00;94.00;;;;;;6100157;23;20017;-80
2023/08/20 07:48:43;;;;;;;5.63;3.95;;;22.00;93.90;;;;;;6100091;23;20013;-81
2023/08/20 07:51:08;;;;;;;5.57;3.40;;;22.00;93.90;;;;;;6126052;23;20009;-80
2023/08/20 07:53:34;;;;;;;6.45;4.05;;;22.10;93.80;;;;;;6099710;23;20085;-81
2023/08/20 07:56:00;;;;;;;5.93;3.65;;;22.10;93.80;;;;;;6100002;23;20425;-81
2023/08/20 07:58:26;;;;;;;6.68;4.05;;;22.10;93.90;;;;;;6100128;23;20010;-80
2023/08/20 08:00:52;;;;;;;6.30;4.00;;;22.10;93.80;;;;;;6100097;23;20084;-80
2023/08/20 08:03:17;;;;;;;5.95;4.03;;;22.10;93.90;;;;;;6100191;23;20006;-80
2023/08/20 08:05:50;;;;;;;6.38;4.15;;;22.10;93.80;;;;;;6099616;23;20372;-80
2023/08/20 08:08:17;;;;;;;6.18;4.15;;;22.10;93.90;;;;;;6100180;23;20006;-80
2023/08/20 08:10:46;;;;;;;6.20;4.07;;;22.10;93.90;;;;;;6099795;23;20006;-80
2023/08/20 08:13:18;;;;;;;6.30;4.10;;;22.10;93.80;;;;;;6099774;23;20510;-80
2023/08/20 08:15:43;;;;;;;6.50;3.95;;;22.10;93.90;;;;;;6125719;23;20081;-80
2023/08/20 08:18:09;;;;;;;8.18;4.20;;;22.10;93.90;;;;;;6125891;23;20029;-80
2023/08/20 08:20:34;;;;;;;6.30;4.07;;;22.20;93.90;;;;;;6125790;23;20006;-80
2023/08/20 08:23:00;;;;;;;5.68;3.92;;;22.20;93.90;;;;;;6125595;23;20501;-80
2023/08/20 08:25:26;;;;;;;7.03;4.40;;;22.20;93.90;;;;;;6125315;23;20002;-80
2023/08/20 08:27:52;;;;;;;6.75;4.35;;;22.20;93.90;;;;;;6099106;23;20013;-80
2023/08/20 08:30:17;;;;;;;6.13;3.95;;;22.20;93.90;;;;;;6125913;23;20006;-80
2023/08/20 08:32:43;;;;;;;6.35;3.65;;;22.20;93.90;;;;;;6099737;23;20010;-80
2023/08/20 08:35:08;;;;;;;6.05;4.25;;;22.20;93.90;;;;;;6099794;23;20001;-80
2023/08/20 08:37:34;;;;;;;6.00;4.00;;;22.20;93.80;;;;;;6099599;23;20345;-80
2023/08/20 08:40:00;;;;;;;6.05;4.05;;;22.30;93.80;;;;;;6099689;23;20006;-80
2023/08/20 08:42:26;;;;;;;7.10;3.95;;;22.30;93.80;;;;;;6125011;23;20006;-80
2023/08/20 08:44:51;;;;;;;5.93;3.85;;;22.30;93.80;;;;;;6125093;23;20345;-80
2023/08/20 08:47:18;;;;;;;5.88;3.90;;;22.30;93.80;;;;;;6125550;23;20005;-80
2023/08/20 08:49:46;;;;;;;5.40;3.42;;;22.30;93.70;;;;;;6125453;23;20481;-80
2023/08/20 08:52:12;;;;;;;5.88;4.13;;;22.30;93.70;;;;;;6099696;23;20441;-80
2023/08/20 08:54:38;;;;;;;5.97;3.80;;;22.40;93.70;;;;;;6099232;23;20010;-81
2023/08/20 08:57:04;;;;;;;5.43;3.60;;;22.30;93.60;;;;;;6125394;23;20081;-81
2023/08/20 08:59:31;;;;;;;6.30;4.00;;;22.40;93.60;;;;;;6125558;23;20009;-80
2023/08/20 09:01:56;;;;;;;6.75;3.97;;;22.40;93.50;;;;;;6099907;23;20317;-80
2023/08/20 09:04:23;;;;;;;5.93;3.85;;;22.50;93.50;;;;;;6125066;23;20057;-81
2023/08/20 09:06:55;;;;;;;6.72;3.88;;;22.50;93.40;;;;;;6125554;23;20009;-80
2023/08/20 09:09:21;;;;;;;5.85;4.00;;;22.50;93.40;;;;;;6125564;23;20006;-80
2023/08/20 09:11:47;;;;;;;6.00;4.00;;;22.50;93.30;;;;;;6099263;23;20005;-81
2023/08/20 09:14:24;;;;;;;6.20;4.07;;;22.60;93.30;;;;;;6099330;23;20006;-80
2023/08/20 09:16:57;;;;;;;5.47;3.75;;;22.60;93.20;;;;;;6099354;23;20042;-81
2023/08/20 09:19:23;;;;;;;6.93;4.20;;;22.60;93.20;;;;;;6099231;23;20029;-81
2023/08/20 09:21:49;;;;;;;6.03;3.45;;;22.60;93.20;;;;;;6125233;23;20009;-80
2023/08/20 09:24:15;;;;;;;5.22;3.65;;;22.60;93.20;;;;;;6098967;23;20010;-80
2023/08/20 09:26:45;;;;;;;5.20;3.63;;;22.60;93.20;;;;;;6098828;23;20056;-77
2023/08/20 09:29:11;;;;;;;5.65;3.83;;;22.60;93.20;;;;;;6099531;23;20006;-80
2023/08/20 09:31:38;;;;;;;5.60;3.67;;;22.60;93.30;;;;;;6099334;23;20005;-80
2023/08/20 09:34:03;;;;;;;6.20;3.95;;;22.50;93.40;;;;;;6098825;23;20010;-81
2023/08/20 09:36:34;;;;;;;5.40;3.63;;;22.50;93.40;;;;;;6099287;23;20033;-80
2023/08/20 09:39:01;;;;;;;6.00;3.80;;;22.50;93.40;;;;;;6125082;23;20033;-80
2023/08/20 09:41:28;;;;;;;5.90;3.75;;;22.50;93.50;;;;;;6125225;23;20006;-80
2023/08/20 09:43:57;;;;;;;5.70;3.63;;;22.50;93.50;;;;;;6124590;23;20002;-79
2023/08/20 09:46:25;;;;;;;6.00;4.00;;;22.50;93.60;;;;;;6125259;23;20009;-80
2023/08/20 09:48:55;;;;;;;5.80;4.05;;;22.50;93.60;;;;;;6098953;23;20010;-80
2023/08/20 09:51:26;;;;;;;5.20;3.50;;;22.50;93.70;;;;;;6125152;23;20077;-80
2023/08/20 09:54:07;;;;;;;6.10;3.97;;;22.50;93.80;;;;;;6098286;23;20084;-80
2023/08/20 09:56:38;;;;;;;5.28;3.63;;;22.50;93.80;;;;;;6099191;23;20089;-80
2023/08/20 09:59:04;;;;;;;5.10;3.72;;;22.50;93.80;;;;;;6099040;23;20014;-79
2023/08/20 10:01:30;;;;;;;6.03;4.00;;;22.50;93.70;;;;;;6125024;23;20413;-80
2023/08/20 10:03:56;;;;;;;5.35;3.90;;;22.50;93.70;;;;;;6098466;23;20491;-80
2023/08/20 10:06:23;;;;;;;5.07;3.42;;;22.50;93.70;;;;;;6099216;23;20013;-80
2023/08/20 10:08:51;;;;;;;5.22;3.33;;;22.50;93.60;;;;;;6099142;23;20009;-80
2023/08/20 10:11:17;;;;;;;5.70;3.63;;;22.50;93.50;;;;;;6099059;23;20030;-80
2023/08/20 10:13:43;;;;;;;5.70;3.50;;;22.60;93.50;;;;;;6098704;23;20006;-80
2023/08/20 10:16:11;;;;;;;5.13;3.40;;;22.60;93.50;;;;;;6124931;23;20002;-80
2023/08/20 10:18:37;;;;;;;6.13;3.88;;;22.60;93.50;;;;;;6098874;23;20089;-80
2023/08/20 10:21:04;;;;;;;5.68;3.60;;;22.50;93.60;;;;;;6099137;23;20046;-81
2023/08/20 10:23:30;;;;;;;5.68;3.63;;;22.50;93.70;;;;;;6124576;23;20010;-79
2023/08/20 10:26:07;;;;;;;5.57;3.72;;;22.50;93.70;;;;;;6098758;23;20045;-80
2023/08/20 10:28:33;;;;;;;4.88;3.38;;;22.50;93.70;;;;;;6124529;23;20018;-80
2023/08/20 10:31:07;;;;;;;5.68;3.60;;;22.50;93.60;;;;;;6098879;23;20040;-80
2023/08/20 10:33:37;;;;;;;5.35;3.70;;;22.60;93.50;;;;;;6098704;23;20026;-80
2023/08/20 10:36:13;;;;;;;5.00;3.50;;;22.60;93.40;;;;;;6124913;23;20002;-80
2023/08/20 10:38:39;;;;;;;5.38;3.55;;;22.60;93.40;;;;;;6098978;23;20010;-80
2023/08/20 10:41:08;;;;;;;6.03;3.90;;;22.70;93.30;;;;;;6098799;23;20006;-80
2023/08/20 10:43:39;;;;;;;5.03;3.45;;;22.60;93.30;;;;;;6098527;23;20453;-80
2023/08/20 10:46:07;;;;;;;5.15;3.35;;;22.60;93.30;;;;;;6124527;23;20018;-80
2023/08/20 10:48:36;;;;;;;5.38;3.47;;;22.70;93.30;;;;;;6098829;23;20006;-80
2023/08/20 10:51:13;;;;;;;5.72;3.70;;;22.70;93.30;;;;;;6125254;23;19994;-80
2023/08/20 10:53:41;;;;;;;5.50;3.67;;;22.70;93.30;;;;;;6098850;23;20006;-80
2023/08/20 10:56:15;;;;;;;5.78;3.75;;;22.60;93.30;;;;;;6124684;23;20002;-80
2023/08/20 10:58:42;;;;;;;5.90;3.97;;;22.60;93.40;;;;;;6098796;23;20086;-80
2023/08/20 11:01:23;;;;;;;5.25;3.65;;;22.60;93.40;;;;;;6098922;23;20079;-80
2023/08/20 11:03:50;;;;;;;5.03;3.25;;;22.60;93.40;;;;;;6098653;23;20016;-80
2023/08/20 11:06:17;;;;;;;5.35;3.63;;;22.60;93.40;;;;;;6100513;23;20010;-80
2023/08/20 11:08:43;;;;;;;5.82;3.63;;;22.50;93.40;;;;;;6100522;23;20105;-80
2023/08/20 11:11:09;;;;;;;5.43;3.72;;;22.60;93.50;;;;;;6100665;23;20341;-80
2023/08/20 11:13:35;;;;;;;5.55;3.80;;;22.60;93.50;;;;;;6126007;23;19997;-79
2023/08/20 11:16:05;;;;;;;5.00;3.47;;;22.50;93.60;;;;;;6100439;23;20006;-81
2023/08/20 11:18:32;;;;;;;5.93;3.75;;;22.60;93.60;;;;;;6126393;23;20085;-80
2023/08/20 11:20:58;;;;;;;5.15;3.67;;;22.60;93.60;;;;;;6100557;23;20387;-80
2023/08/20 11:23:24;;;;;;;5.10;3.30;;;22.60;93.60;;;;;;6126308;23;20017;-80
2023/08/20 11:25:50;;;;;;;5.53;3.67;;;22.50;93.60;;;;;;6099985;23;20010;-80
2023/08/20 11:28:16;;;;;;;6.18;3.80;;;22.60;93.60;;;;;;6125993;23;20022;-80
2023/08/20 11:30:41;;;;;;;5.28;3.67;;;22.60;93.60;;;;;;6126161;23;20334;-80
2023/08/20 11:33:07;;;;;;;5.07;3.33;;;22.60;93.70;;;;;;6100382;23;20002;-80
2023/08/20 11:35:33;;;;;;;5.53;3.55;;;22.60;93.70;;;;;;6100242;23;20006;-80
2023/08/20 11:37:59;;;;;;;5.80;3.67;;;22.60;93.70;;;;;;6100239;23;20014;-80
2023/08/20 11:40:24;;;;;;;5.00;3.50;;;22.60;93.70;;;;;;6100383;23;20353;-80
2023/08/20 11:42:50;;;;;;;4.93;3.50;;;22.60;93.60;;;;;;6100124;23;20006;-80
2023/08/20 11:45:16;;;;;;;4.53;3.10;;;22.60;93.70;;;;;;6099881;23;20020;-80
2023/08/20 11:47:42;;;;;;;5.70;3.90;;;22.60;93.60;;;;;;6100249;23;20069;-80
2023/08/20 11:50:08;;;;;;;5.20;3.50;;;22.40;93.60;;;;;;6126199;23;19998;-80
2023/08/20 11:52:36;;;;;;;5.18;3.42;;;22.60;93.60;;;;;;6126156;23;20010;-80
2023/08/20 11:55:03;;;;;;;5.13;3.42;;;22.60;93.60;;;;;;6099962;23;20006;-80
2023/08/20 11:57:29;;;;;;;6.10;3.90;;;22.60;93.50;;;;;;6100273;23;20006;-80
2023/08/20 11:59:56;;;;;;;5.47;3.60;;;22.60;93.40;;;;;;6099827;23;20014;-80
2023/08/20 12:02:25;;;;;;;4.85;3.40;;;22.60;93.40;;;;;;6126133;23;20002;-80
2023/08/20 12:04:51;;;;;;;5.78;3.83;;;22.60;93.40;;;;;;6125767;23;20388;-80
2023/08/20 12:07:17;;;;;;;5.28;3.28;;;22.60;93.40;;;;;;6100178;23;20006;-80
2023/08/20 12:09:42;;;;;;;5.50;3.30;;;22.70;93.30;;;;;;6099866;23;20005;-80
2023/08/20 12:12:08;;;;;;;5.30;3.72;;;22.70;93.30;;;;;;6100139;23;20009;-80
2023/08/20 12:14:37;;;;;;;5.68;3.70;;;22.60;93.30;;;;;;6099642;23;20010;-80
2023/08/20 12:17:03;;;;;;;5.22;3.50;;;22.80;93.30;;;;;;6125808;23;20002;-81
2023/08/20 12:19:29;;;;;;;4.85;3.15;;;22.70;93.30;;;;;;6125950;23;20006;-80
2023/08/20 12:21:54;;;;;;;6.78;4.30;;;22.70;93.30;;;;;;6100124;23;20507;-80
2023/08/20 12:24:20;;;;;;;5.88;3.88;;;22.60;93.30;;;;;;6099343;23;20006;-80
2023/08/20 12:26:46;;;;;;;5.32;3.70;;;22.60;93.40;;;;;;6099255;23;20349;-80
2023/08/20 12:29:11;;;;;;;5.55;3.67;;;22.60;93.40;;;;;;6125988;23;19998;-81
2023/08/20 12:31:37;;;;;;;5.35;3.83;;;22.60;93.40;;;;;;6125823;23;20049;-80
2023/08/20 12:34:03;;;;;;;5.40;3.60;;;22.50;93.50;;;;;;6099779;23;20440;-80
2023/08/20 12:36:29;;;;;;;5.05;3.45;;;22.50;93.50;;;;;;6125859;23;20003;-80
2023/08/20 12:38:55;;;;;;;5.28;3.47;;;22.50;93.60;;;;;;6099582;23;20096;-80
2023/08/20 12:41:21;;;;;;;5.82;3.60;;;22.50;93.60;;;;;;6099758;23;20084;-80